Time;durP1;ratioP1;P1;durP2;ratioP2;P2;SDS_P1;SDS_P2;PMS_P1;PMS_P2;Temp;Humidity;BMP_temperature;BMP_pressure;BME280_temperature;BME280_humidity;BME280_pressure;Samples;Min_cycle;Max_cycle;Signal;HPM_P1;HPM_P2
2022/11/02 00:01:55;;;;;;;1.23;0.50;;;8.20;99.90;;;;;;5014840;28;20050;-69
2022/11/02 00:04:22;;;;;;;6.35;1.13;;;8.30;99.90;;;;;;5024378;28;20052;-64
2022/11/02 00:06:50;;;;;;;1.65;0.75;;;8.30;99.90;;;;;;5021640;28;20533;-67
2022/11/02 00:09:18;;;;;;;6.72;0.98;;;8.30;99.90;;;;;;5022100;28;20045;-64
2022/11/02 00:11:45;;;;;;;5.85;0.60;;;8.30;99.90;;;;;;5028517;28;20531;-64
2022/11/02 00:14:12;;;;;;;3.33;0.60;;;8.20;99.90;;;;;;5020408;28;20052;-64
2022/11/02 00:16:40;;;;;;;3.97;0.90;;;8.20;99.90;;;;;;5022106;28;20053;-67
2022/11/02 00:19:08;;;;;;;1.23;0.50;;;8.10;99.90;;;;;;5024172;28;20049;-66
2022/11/02 00:21:37;;;;;;;2.38;1.15;;;8.10;99.90;;;;;;5011001;28;20053;-64
2022/11/02 00:24:06;;;;;;;2.08;0.90;;;8.00;99.90;;;;;;5020106;28;20513;-63
2022/11/02 00:26:35;;;;;;;2.20;0.63;;;8.00;99.90;;;;;;5020854;28;20046;-63
2022/11/02 00:29:04;;;;;;;2.75;0.80;;;7.90;99.90;;;;;;5019756;28;20041;-65
2022/11/02 00:31:31;;;;;;;6.27;1.10;;;7.90;99.90;;;;;;5020857;28;20050;-62
2022/11/02 00:33:59;;;;;;;1.15;0.60;;;7.80;99.90;;;;;;4997433;28;20057;-63
2022/11/02 00:36:30;;;;;;;1.60;0.82;;;7.80;99.90;;;;;;5012854;28;20045;-73
2022/11/02 00:38:57;;;;;;;2.53;0.68;;;7.70;99.90;;;;;;5019453;28;20057;-64
2022/11/02 00:41:25;;;;;;;7.05;1.27;;;7.60;99.90;;;;;;5009540;28;20046;-71
2022/11/02 00:43:53;;;;;;;2.03;0.90;;;7.60;99.90;;;;;;5012608;28;20038;-71
2022/11/02 00:46:20;;;;;;;3.88;0.90;;;7.60;99.90;;;;;;5007800;28;20049;-73
2022/11/02 00:48:48;;;;;;;3.42;0.55;;;7.50;99.90;;;;;;5010746;28;20050;-66
2022/11/02 00:51:16;;;;;;;5.85;1.00;;;7.50;99.90;;;;;;5021002;28;20045;-71
2022/11/02 00:53:44;;;;;;;3.20;0.65;;;7.40;99.90;;;;;;5021884;28;20049;-73
2022/11/02 00:56:12;;;;;;;2.03;0.65;;;7.40;99.90;;;;;;5007326;28;20049;-73
2022/11/02 00:58:40;;;;;;;2.03;0.52;;;7.30;99.90;;;;;;5016681;28;20052;-73
2022/11/02 01:01:09;;;;;;;9.48;1.65;;;7.30;99.90;;;;;;5017126;28;20402;-71
2022/11/02 01:03:37;;;;;;;3.40;0.47;;;7.30;99.90;;;;;;5005632;28;20046;-65
2022/11/02 01:06:10;;;;;;;4.53;0.60;;;7.30;99.90;;;;;;5008302;28;20497;-71
2022/11/02 01:08:38;;;;;;;3.10;0.60;;;7.30;99.90;;;;;;5015361;28;20048;-72
2022/11/02 01:11:23;;;;;;;3.22;0.52;;;7.20;99.90;;;;;;5021593;28;20049;-70
2022/11/02 01:13:53;;;;;;;1.38;0.63;;;7.20;99.90;;;;;;5016089;28;20121;-74
2022/11/02 01:16:21;;;;;;;6.13;0.73;;;7.20;99.90;;;;;;5028441;28;20060;-63
2022/11/02 01:18:55;;;;;;;7.00;0.63;;;7.10;99.90;;;;;;5026375;28;20056;-61
2022/11/02 01:21:24;;;;;;;6.57;0.90;;;7.10;99.90;;;;;;5018616;28;20046;-62
2022/11/02 01:23:52;;;;;;;3.35;0.60;;;7.10;99.90;;;;;;5025591;28;20089;-62
2022/11/02 01:26:19;;;;;;;6.07;0.75;;;7.10;99.90;;;;;;5015594;28;20046;-62
2022/11/02 01:28:47;;;;;;;3.72;0.70;;;7.10;99.90;;;;;;5018562;28;20041;-62
2022/11/02 01:31:15;;;;;;;3.03;0.70;;;7.10;99.90;;;;;;5021065;28;20042;-63
2022/11/02 01:33:44;;;;;;;1.98;0.50;;;7.10;99.90;;;;;;5005138;28;20049;-62
2022/11/02 01:36:14;;;;;;;4.35;1.00;;;7.10;99.90;;;;;;5011003;28;20056;-63
2022/11/02 01:38:41;;;;;;;5.38;0.93;;;7.00;99.90;;;;;;5009578;28;20049;-62
2022/11/02 01:41:11;;;;;;;8.18;1.05;;;7.00;99.90;;;;;;5010765;28;20049;-62
2022/11/02 01:43:48;;;;;;;3.38;0.60;;;7.00;99.90;;;;;;5015901;28;20049;-62
2022/11/02 01:46:24;;;;;;;8.20;0.73;;;7.00;99.90;;;;;;5018599;28;20060;-61
2022/11/02 01:49:00;;;;;;;8.65;0.98;;;7.00;99.90;;;;;;5010615;28;20049;-62
2022/11/02 01:51:56;;;;;;;10.15;1.58;;;7.10;99.90;;;;;;5014094;28;20041;-62
2022/11/02 01:54:31;;;;;;;7.75;0.93;;;7.00;99.90;;;;;;5013946;28;20052;-62
2022/11/02 01:57:05;;;;;;;4.57;0.75;;;7.00;99.90;;;;;;5003951;28;20046;-62
2022/11/02 01:59:39;;;;;;;5.03;0.88;;;7.00;99.90;;;;;;5005215;28;20049;-64
2022/11/02 02:02:14;;;;;;;8.52;0.90;;;7.00;99.90;;;;;;5006309;28;20537;-62
2022/11/02 02:04:44;;;;;;;10.43;0.90;;;7.00;99.90;;;;;;5012734;28;20050;-63
2022/11/02 02:07:13;;;;;;;8.30;1.00;;;7.00;99.90;;;;;;5012535;28;20061;-66
2022/11/02 02:09:41;;;;;;;4.93;1.00;;;6.90;99.90;;;;;;5008246;28;20224;-63
2022/11/02 02:12:13;;;;;;;9.38;1.00;;;6.90;99.90;;;;;;5009355;28;20053;-65
2022/11/02 02:14:42;;;;;;;7.22;1.20;;;6.90;99.90;;;;;;5023119;28;20046;-70
2022/11/02 02:17:30;;;;;;;7.78;1.17;;;6.80;99.90;;;;;;5014241;28;20046;-69
2022/11/02 02:20:10;;;;;;;7.80;0.70;;;6.80;99.90;;;;;;5019774;28;20054;-67
2022/11/02 02:23:00;;;;;;;6.95;1.02;;;6.70;99.90;;;;;;5013428;28;20379;-65
2022/11/02 02:25:49;;;;;;;3.28;0.68;;;6.70;99.90;;;;;;5006943;28;20061;-63
2022/11/02 02:28:25;;;;;;;8.95;0.68;;;6.60;99.90;;;;;;5019559;28;20060;-63
2022/11/02 02:31:08;;;;;;;4.78;0.70;;;6.60;99.90;;;;;;5010262;28;20053;-62
2022/11/02 02:33:53;;;;;;;8.45;1.10;;;6.50;99.90;;;;;;5015725;28;20524;-63
2022/11/02 02:36:31;;;;;;;4.60;0.60;;;6.50;99.90;;;;;;5026667;28;20052;-62
2022/11/02 02:39:12;;;;;;;7.65;0.68;;;6.40;99.90;;;;;;5017534;28;20056;-62
2022/11/02 02:41:48;;;;;;;2.42;0.70;;;6.40;99.90;;;;;;5018457;28;20038;-63
2022/11/02 02:44:21;;;;;;;3.20;0.65;;;6.20;99.90;;;;;;5017894;28;20042;-62
2022/11/02 02:46:56;;;;;;;10.70;0.93;;;6.20;99.90;;;;;;5017586;28;20070;-62
2022/11/02 02:49:31;;;;;;;6.40;0.82;;;6.30;99.90;;;;;;5013917;28;20053;-62
2022/11/02 02:52:00;;;;;;;7.70;0.75;;;6.20;99.90;;;;;;5013352;28;20062;-62
2022/11/02 02:54:34;;;;;;;4.97;0.70;;;6.20;99.90;;;;;;5012963;28;20045;-62
2022/11/02 02:57:12;;;;;;;9.27;0.90;;;6.10;99.90;;;;;;5022994;28;20042;-61
2022/11/02 02:59:45;;;;;;;10.65;1.00;;;6.10;99.90;;;;;;5012908;28;20046;-64
2022/11/02 03:02:26;;;;;;;4.28;1.02;;;6.10;99.90;;;;;;5020511;28;20727;-76
2022/11/02 03:04:54;;;;;;;7.07;0.73;;;6.10;99.90;;;;;;5030906;28;20041;-75
2022/11/02 03:07:34;;;;;;;11.65;1.08;;;6.10;99.90;;;;;;5025434;28;20246;-75
2022/11/02 03:10:19;;;;;;;6.10;0.82;;;6.10;99.90;;;;;;5012171;28;20045;-74
2022/11/02 03:13:26;;;;;;;6.30;0.90;;;6.10;99.90;;;;;;5012139;28;20061;-67
2022/11/02 03:16:00;;;;;;;3.67;0.90;;;6.20;99.90;;;;;;5006797;28;20056;-67
2022/11/02 03:18:30;;;;;;;5.45;0.95;;;6.20;99.90;;;;;;5012369;28;20052;-73
2022/11/02 03:21:06;;;;;;;6.93;0.77;;;6.20;99.90;;;;;;5010099;28;20049;-72
2022/11/02 03:23:59;;;;;;;11.55;0.95;;;6.20;99.90;;;;;;5012435;28;20640;-75
2022/11/02 03:26:38;;;;;;;4.47;0.50;;;6.20;99.90;;;;;;5030129;28;20642;-76
2022/11/02 03:29:21;;;;;;;10.45;1.02;;;6.30;99.90;;;;;;5032636;28;20492;-72
2022/11/02 03:32:01;;;;;;;8.52;0.73;;;6.30;99.90;;;;;;5033545;28;20057;-75
2022/11/02 03:34:41;;;;;;;4.70;0.73;;;6.30;99.90;;;;;;5032526;28;20045;-72
2022/11/02 03:37:25;;;;;;;13.40;1.00;;;6.40;99.90;;;;;;5032590;28;20049;-75
2022/11/02 03:40:06;;;;;;;8.95;0.95;;;6.30;99.90;;;;;;5023076;28;20049;-75
2022/11/02 03:42:35;;;;;;;11.27;1.42;;;6.30;99.90;;;;;;5012547;28;20042;-75
2022/11/02 03:45:12;;;;;;;6.00;0.85;;;6.30;99.90;;;;;;5029797;28;20053;-75
2022/11/02 03:47:43;;;;;;;9.50;0.90;;;6.30;99.90;;;;;;5031893;28;20049;-75
2022/11/02 03:50:15;;;;;;;18.65;2.03;;;6.30;99.90;;;;;;5032459;28;20041;-70
2022/11/02 03:52:47;;;;;;;8.07;0.75;;;6.30;99.90;;;;;;5033633;28;20550;-69
2022/11/02 03:55:25;;;;;;;24.27;3.05;;;6.20;99.90;;;;;;5030778;28;20511;-71
2022/11/02 03:57:53;;;;;;;9.82;1.00;;;6.20;99.90;;;;;;5033336;28;20497;-72
2022/11/02 04:00:28;;;;;;;5.35;0.65;;;6.20;99.90;;;;;;5032138;28;20409;-66
2022/11/02 04:03:06;;;;;;;8.20;1.10;;;6.20;99.90;;;;;;5032133;28;20049;-63
2022/11/02 04:05:38;;;;;;;8.80;1.13;;;6.10;99.90;;;;;;5031991;28;20048;-71
2022/11/02 04:08:21;;;;;;;9.75;0.82;;;6.20;99.90;;;;;;5032027;28;20393;-63
2022/11/02 04:16:35;;;;;;;6.20;0.77;;;6.20;99.90;;;;;;5029722;28;20049;-65
2022/11/02 04:19:29;;;;;;;8.75;0.57;;;6.20;99.90;;;;;;5012058;28;20046;-68
2022/11/02 04:27:42;;;;;;;9.57;1.10;;;6.20;99.90;;;;;;5018848;28;20057;-71
2022/11/02 04:30:11;;;;;;;8.88;0.80;;;6.20;99.90;;;;;;5031506;28;20045;-66
2022/11/02 04:35:34;;;;;;;9.88;1.58;;;6.20;99.90;;;;;;5029694;28;20080;-68
2022/11/02 04:41:40;;;;;;;5.07;0.68;;;6.10;99.90;;;;;;5011571;28;20050;-69
2022/11/02 04:43:37;;;;;;;10.32;0.90;;;6.10;99.90;;;;;;5016742;28;20397;-66
2022/11/02 04:46:04;;;;;;;13.13;1.35;;;6.00;99.90;;;;;;5030689;28;20060;-65
2022/11/02 04:48:33;;;;;;;4.95;0.55;;;6.00;99.90;;;;;;5031178;28;20049;-69
2022/11/02 04:51:02;;;;;;;7.50;1.50;;;6.00;99.90;;;;;;5031396;28;20049;-62
2022/11/02 04:53:30;;;;;;;8.65;0.90;;;6.00;99.90;;;;;;5032411;28;20053;-67
2022/11/02 04:55:57;;;;;;;7.20;1.05;;;5.90;99.90;;;;;;5029405;28;20049;-63
2022/11/02 04:58:25;;;;;;;9.25;0.80;;;6.00;99.90;;;;;;5031061;28;20045;-62
2022/11/02 05:00:53;;;;;;;6.97;1.17;;;6.00;99.90;;;;;;5032083;28;20405;-62
2022/11/02 05:03:21;;;;;;;5.10;0.85;;;6.00;99.90;;;;;;5031023;28;20393;-62
2022/11/02 05:05:53;;;;;;;11.70;0.70;;;6.10;99.90;;;;;;5030570;28;20045;-63
2022/11/02 05:08:22;;;;;;;7.68;1.45;;;6.10;99.90;;;;;;5027495;28;20053;-62
2022/11/02 05:10:54;;;;;;;13.50;1.58;;;6.10;99.90;;;;;;5032012;28;20489;-62
2022/11/02 05:13:23;;;;;;;14.05;1.48;;;6.20;99.90;;;;;;5031665;28;20049;-61
2022/11/02 05:15:57;;;;;;;5.53;0.82;;;6.10;99.90;;;;;;5016371;28;20034;-62
2022/11/02 05:18:26;;;;;;;4.95;0.73;;;6.10;99.90;;;;;;5031603;28;20049;-62
2022/11/02 05:20:57;;;;;;;9.52;1.33;;;6.20;99.90;;;;;;5030788;28;20049;-61
2022/11/02 05:23:28;;;;;;;4.88;1.10;;;6.20;99.90;;;;;;5014169;28;20042;-62
2022/11/02 05:25:58;;;;;;;13.30;0.80;;;6.20;99.90;;;;;;5014788;28;20053;-65
2022/11/02 05:28:28;;;;;;;8.10;1.30;;;6.20;99.90;;;;;;5030597;28;20397;-62
2022/11/02 05:31:00;;;;;;;3.88;0.80;;;6.10;99.90;;;;;;5031787;28;20394;-62
2022/11/02 05:33:32;;;;;;;4.90;0.73;;;6.20;99.90;;;;;;5030533;28;20053;-71
2022/11/02 05:36:05;;;;;;;11.02;2.00;;;6.10;99.90;;;;;;5029214;28;20041;-71
2022/11/02 05:38:35;;;;;;;5.55;1.15;;;6.10;99.90;;;;;;5021356;28;20054;-73
2022/11/02 05:41:04;;;;;;;6.85;0.90;;;6.10;99.90;;;;;;5010836;28;20046;-72
2022/11/02 05:43:35;;;;;;;9.20;1.40;;;6.10;99.90;;;;;;5016107;28;20045;-66
2022/11/02 05:46:05;;;;;;;9.70;0.90;;;6.10;99.90;;;;;;5029041;28;20045;-73
2022/11/02 05:48:33;;;;;;;8.65;1.52;;;6.10;99.90;;;;;;5026719;28;20056;-62
2022/11/02 05:51:02;;;;;;;8.25;0.80;;;6.10;99.90;;;;;;5031527;28;20045;-63
2022/11/02 05:53:32;;;;;;;6.43;0.50;;;6.10;99.90;;;;;;5027306;28;20045;-62
2022/11/02 05:56:01;;;;;;;3.15;0.77;;;6.10;99.90;;;;;;5012563;28;20421;-73
2022/11/02 05:58:28;;;;;;;9.32;0.93;;;6.00;99.90;;;;;;5030962;28;20054;-74
2022/11/02 06:01:04;;;;;;;5.68;0.75;;;6.00;99.90;;;;;;5013879;28;20049;-73
2022/11/02 06:03:32;;;;;;;7.68;1.65;;;6.10;99.90;;;;;;5011924;28;20054;-62
2022/11/02 06:06:03;;;;;;;8.70;1.05;;;6.00;99.90;;;;;;5010221;28;20046;-62
2022/11/02 06:08:32;;;;;;;12.60;0.90;;;6.10;99.90;;;;;;5027670;28;20066;-65
2022/11/02 06:11:06;;;;;;;7.68;0.70;;;6.00;99.90;;;;;;5028237;28;20046;-62
2022/11/02 06:13:34;;;;;;;5.45;0.68;;;5.70;99.90;;;;;;5021896;28;20049;-61
2022/11/02 06:16:04;;;;;;;3.63;0.60;;;6.10;99.90;;;;;;5027282;28;20050;-62
2022/11/02 06:18:32;;;;;;;6.20;0.73;;;6.10;99.90;;;;;;5017435;28;20072;-62
2022/11/02 06:21:00;;;;;;;4.65;1.30;;;6.10;99.90;;;;;;5008210;28;20046;-63
2022/11/02 06:23:28;;;;;;;9.25;0.90;;;6.10;99.90;;;;;;5007191;28;20050;-65
2022/11/02 06:25:58;;;;;;;9.05;1.30;;;6.10;99.90;;;;;;5020754;28;20054;-72
2022/11/02 06:28:27;;;;;;;8.55;1.92;;;6.10;99.90;;;;;;5009441;28;20467;-72
2022/11/02 06:30:55;;;;;;;10.20;0.98;;;6.10;99.90;;;;;;5026701;28;20497;-71
2022/11/02 06:33:23;;;;;;;4.95;1.45;;;6.10;99.90;;;;;;5019715;28;20493;-70
2022/11/02 06:35:52;;;;;;;12.50;1.02;;;6.10;99.90;;;;;;5025942;28;20219;-72
2022/11/02 06:38:21;;;;;;;4.30;1.33;;;6.10;99.90;;;;;;5026283;28;20053;-71
2022/11/02 06:40:59;;;;;;;9.05;0.90;;;6.10;99.90;;;;;;5025291;28;20053;-72
2022/11/02 06:43:26;;;;;;;10.43;1.23;;;6.10;99.90;;;;;;5021881;28;20054;-70
2022/11/02 06:45:56;;;;;;;10.38;2.08;;;6.10;99.90;;;;;;5025948;28;20052;-72
2022/11/02 06:48:25;;;;;;;6.13;0.75;;;6.10;99.90;;;;;;5026246;28;20049;-66
2022/11/02 06:51:01;;;;;;;7.82;0.73;;;6.10;99.90;;;;;;5026204;28;20050;-66
2022/11/02 06:53:29;;;;;;;7.50;0.95;;;6.10;99.90;;;;;;5026198;28;20485;-65
2022/11/02 06:55:59;;;;;;;13.38;1.10;;;6.10;99.90;;;;;;5025838;28;20054;-62
2022/11/02 06:58:26;;;;;;;5.78;0.73;;;6.10;99.90;;;;;;5020356;28;20053;-63
2022/11/02 07:01:04;;;;;;;6.97;1.00;;;6.20;99.90;;;;;;5027476;28;20402;-64
2022/11/02 07:03:32;;;;;;;8.00;0.70;;;6.20;99.90;;;;;;5024849;28;20049;-65
2022/11/02 07:06:00;;;;;;;6.20;1.35;;;6.20;99.90;;;;;;5026317;28;20045;-71
2022/11/02 07:08:28;;;;;;;3.53;1.25;;;6.20;99.90;;;;;;5024793;28;20064;-64
2022/11/02 07:10:56;;;;;;;7.05;1.40;;;6.20;99.90;;;;;;5029975;28;20060;-68
2022/11/02 07:13:24;;;;;;;5.85;0.60;;;6.20;99.90;;;;;;5029486;28;20050;-67
2022/11/02 07:15:53;;;;;;;5.88;1.13;;;6.20;99.90;;;;;;5017359;28;20057;-63
2022/11/02 07:18:21;;;;;;;8.88;1.30;;;6.20;99.90;;;;;;5020960;28;20046;-63
2022/11/02 07:20:49;;;;;;;6.88;0.65;;;6.20;99.90;;;;;;5011139;28;20042;-65
2022/11/02 07:23:17;;;;;;;12.93;0.90;;;6.30;99.90;;;;;;5010945;28;20390;-63
2022/11/02 07:25:44;;;;;;;8.77;1.55;;;6.30;99.90;;;;;;5012671;28;20414;-64
2022/11/02 07:28:12;;;;;;;5.43;0.70;;;6.40;99.90;;;;;;5019147;28;20049;-63
2022/11/02 07:30:40;;;;;;;12.38;1.15;;;6.40;99.90;;;;;;5027579;28;20400;-62
2022/11/02 07:33:07;;;;;;;4.10;0.70;;;6.50;99.90;;;;;;5017539;28;20486;-63
2022/11/02 07:35:35;;;;;;;8.70;1.52;;;6.50;99.90;;;;;;5010526;28;20061;-63
2022/11/02 07:38:05;;;;;;;13.63;2.05;;;6.60;99.90;;;;;;5019210;28;20045;-61
2022/11/02 07:40:34;;;;;;;11.90;1.35;;;6.60;99.90;;;;;;5027282;28;20061;-62
2022/11/02 07:43:03;;;;;;;7.97;0.90;;;6.70;99.90;;;;;;5027168;28;20500;-61
2022/11/02 07:45:46;;;;;;;9.18;1.25;;;6.80;99.90;;;;;;5029109;28;20050;-62
2022/11/02 07:48:14;;;;;;;11.52;1.50;;;6.80;99.90;;;;;;5028146;28;20061;-62
2022/11/02 07:50:41;;;;;;;5.38;0.90;;;6.90;99.90;;;;;;5010524;28;20054;-63
2022/11/02 07:53:09;;;;;;;6.70;0.85;;;7.00;99.90;;;;;;5012604;28;20397;-62
2022/11/02 07:55:36;;;;;;;7.13;1.30;;;7.00;99.90;;;;;;5027578;28;20050;-62
2022/11/02 07:58:08;;;;;;;11.10;1.25;;;7.10;99.90;;;;;;5029769;28;20049;-63
2022/11/02 08:00:39;;;;;;;9.35;0.90;;;7.10;99.90;;;;;;5030630;28;20057;-62
2022/11/02 08:03:09;;;;;;;5.25;0.57;;;7.20;99.90;;;;;;5030085;28;20049;-64
2022/11/02 08:05:40;;;;;;;9.85;1.15;;;7.20;99.90;;;;;;5011133;28;20543;-63
2022/11/02 08:08:10;;;;;;;;;;;7.30;99.90;;;;;;5028575;28;20050;-63
2022/11/02 08:10:37;;;;;;;8.50;1.30;;;7.30;99.90;;;;;;5006217;28;19925;-67
2022/11/02 08:13:12;;;;;;;15.45;0.98;;;7.40;99.90;;;;;;5013208;28;20385;-63
2022/11/02 08:15:40;;;;;;;16.25;1.63;;;7.40;99.90;;;;;;5008381;28;20617;-64
2022/11/02 08:18:15;;;;;;;7.47;1.50;;;7.40;99.90;;;;;;5011124;28;20057;-63
2022/11/02 08:20:45;;;;;;;10.85;1.00;;;7.50;99.90;;;;;;5020327;28;20378;-64
2022/11/02 08:23:14;;;;;;;13.68;1.17;;;7.40;99.90;;;;;;5017162;28;20052;-64
2022/11/02 08:25:44;;;;;;;10.65;1.80;;;7.50;99.90;;;;;;5011643;28;20045;-63
2022/11/02 08:28:15;;;;;;;8.32;1.00;;;7.60;99.90;;;;;;5010948;28;20046;-64
2022/11/02 08:30:43;;;;;;;6.85;1.60;;;7.60;99.90;;;;;;5009711;28;20045;-64
2022/11/02 08:33:14;;;;;;;5.57;1.20;;;7.60;99.90;;;;;;5027464;28;20064;-64
2022/11/02 08:35:43;;;;;;;11.32;0.75;;;7.70;99.90;;;;;;5010579;28;20057;-63
2022/11/02 08:38:12;;;;;;;9.57;1.40;;;7.80;99.90;;;;;;5001050;28;20045;-63
2022/11/02 08:40:40;;;;;;;9.52;1.35;;;7.80;99.90;;;;;;5028117;28;20061;-64
2022/11/02 08:43:11;;;;;;;10.55;1.30;;;7.80;99.90;;;;;;5028077;28;20044;-64
2022/11/02 08:45:40;;;;;;;10.40;1.63;;;7.90;99.90;;;;;;5025629;28;20060;-67
2022/11/02 08:48:28;;;;;;;11.45;2.05;;;7.90;99.90;;;;;;5027558;28;20041;-65
2022/11/02 08:50:56;;;;;;;6.93;0.85;;;8.00;99.90;;;;;;5027428;28;20053;-64
2022/11/02 08:53:24;;;;;;;7.75;1.42;;;;;;;;;;5024710;28;20045;-61
2022/11/02 08:55:51;;;;;;;9.20;0.90;;;8.10;99.90;;;;;;5007852;28;20133;-61
2022/11/02 08:58:19;;;;;;;11.82;1.50;;;8.20;99.90;;;;;;5021545;28;20390;-61
2022/11/02 09:00:46;;;;;;;8.40;1.83;;;8.30;99.90;;;;;;5028692;28;20063;-61
2022/11/02 09:03:15;;;;;;;19.25;1.80;;;8.40;99.90;;;;;;5029031;28;20041;-64
2022/11/02 09:05:55;;;;;;;17.08;2.15;;;8.40;99.90;;;;;;5019661;28;20045;-66
2022/11/02 09:08:22;;;;;;;11.63;1.40;;;8.50;99.90;;;;;;5020227;28;20060;-65
2022/11/02 09:10:59;;;;;;;15.77;2.08;;;8.60;99.90;;;;;;5023463;28;20049;-67
2022/11/02 09:13:27;;;;;;;16.90;1.25;;;8.70;99.90;;;;;;5017164;28;20053;-66
2022/11/02 09:15:57;;;;;;;10.32;1.45;;;8.60;99.90;;;;;;5027662;28;20061;-66
2022/11/02 09:18:24;;;;;;;11.98;1.23;;;8.80;99.90;;;;;;5028484;28;20041;-66
2022/11/02 09:20:52;;;;;;;12.10;1.40;;;8.80;99.90;;;;;;5014190;28;20037;-70
2022/11/02 09:23:20;;;;;;;12.07;2.25;;;9.00;99.90;;;;;;5021127;28;20049;-70
2022/11/02 09:25:49;;;;;;;12.48;1.25;;;8.90;99.90;;;;;;5026419;28;20135;-63
2022/11/02 09:28:16;;;;;;;10.25;1.15;;;9.10;99.90;;;;;;5025478;28;20216;-61
2022/11/02 09:30:44;;;;;;;12.40;1.08;;;9.10;99.90;;;;;;5026095;28;20516;-60
2022/11/02 09:33:12;;;;;;;8.57;1.50;;;9.20;99.90;;;;;;5028452;28;20476;-62
2022/11/02 09:35:43;;;;;;;7.82;1.73;;;9.30;99.90;;;;;;5024147;28;20057;-61
2022/11/02 09:38:11;;;;;;;5.93;1.02;;;9.40;99.90;;;;;;5025849;28;20053;-64
2022/11/02 09:40:44;;;;;;;15.50;1.70;;;9.40;99.90;;;;;;5025464;28;20050;-62
2022/11/02 09:43:30;;;;;;;13.60;1.40;;;9.50;99.90;;;;;;5028149;28;20042;-62
2022/11/02 09:46:11;;;;;;;8.90;1.10;;;9.60;99.90;;;;;;5026927;28;20080;-64
2022/11/02 09:48:49;;;;;;;8.00;1.85;;;9.70;99.90;;;;;;5026197;28;20055;-61
2022/11/02 09:51:22;;;;;;;13.68;1.35;;;9.70;99.90;;;;;;5024318;28;20061;-63
2022/11/02 09:54:19;;;;;;;12.63;2.28;;;9.80;99.90;;;;;;5028434;28;20053;-60
2022/11/02 09:56:49;;;;;;;7.55;1.05;;;9.90;99.90;;;;;;5025059;28;20053;-62
2022/11/02 09:59:20;;;;;;;14.38;2.40;;;9.90;99.90;;;;;;5025631;28;20057;-62
2022/11/02 10:02:22;;;;;;;12.50;1.23;;;10.00;99.90;;;;;;5023515;28;20049;-62
2022/11/02 10:05:14;;;;;;;11.82;1.83;;;10.00;99.90;;;;;;5013473;28;20516;-63
2022/11/02 10:08:05;;;;;;;13.77;1.75;;;10.00;99.90;;;;;;5016395;28;20103;-63
2022/11/02 10:11:00;;;;;;;11.52;1.33;;;10.10;99.90;;;;;;5028008;28;20045;-61
2022/11/02 10:13:46;;;;;;;7.43;1.23;;;10.10;99.90;;;;;;5022961;28;20492;-62
2022/11/02 10:16:43;;;;;;;12.80;1.55;;;10.10;99.90;;;;;;5026619;28;20041;-61
2022/11/02 10:19:16;;;;;;;15.38;1.88;;;10.10;99.90;;;;;;5027495;28;20532;-65
2022/11/02 10:21:47;;;;;;;6.80;1.10;;;10.20;99.90;;;;;;5026244;28;20378;-63
2022/11/02 10:24:34;;;;;;;13.52;1.88;;;10.10;99.90;;;;;;5022254;28;20042;-62
2022/11/02 10:27:11;;;;;;;6.53;1.23;;;10.20;99.90;;;;;;5024302;28;20054;-61
2022/11/02 10:29:45;;;;;;;17.42;2.53;;;10.20;99.90;;;;;;5027400;28;20072;-61
2022/11/02 10:32:13;;;;;;;17.20;1.60;;;10.20;99.90;;;;;;5027926;28;20497;-62
2022/11/02 10:34:43;;;;;;;14.70;1.95;;;10.20;99.90;;;;;;5014092;28;20050;-60
2022/11/02 10:37:35;;;;;;;13.98;2.17;;;10.20;99.90;;;;;;5022113;28;20042;-68
2022/11/02 10:40:09;;;;;;;11.70;1.45;;;10.20;99.90;;;;;;5021727;28;20068;-69
2022/11/02 10:42:45;;;;;;;10.02;1.58;;;10.20;99.90;;;;;;5028817;28;20045;-69
2022/11/02 10:45:51;;;;;;;14.00;1.70;;;10.20;99.90;;;;;;5028029;28;20052;-71
2022/11/02 10:48:32;;;;;;;10.80;1.27;;;10.30;99.90;;;;;;5000908;28;20058;-70
2022/11/02 10:51:10;;;;;;;13.52;1.77;;;10.40;99.90;;;;;;5014873;28;20058;-70
2022/11/02 10:53:41;;;;;;;9.95;1.23;;;10.40;99.90;;;;;;5027258;28;20041;-67
2022/11/02 10:56:20;;;;;;;17.15;2.50;;;10.40;99.90;;;;;;5031122;28;20497;-70
2022/11/02 10:59:14;;;;;;;13.43;2.88;;;10.40;99.90;;;;;;5030390;28;20049;-69
2022/11/02 11:02:02;;;;;;;10.65;1.75;;;10.50;99.90;;;;;;5028134;28;20065;-67
2022/11/02 11:04:31;;;;;;;18.55;1.40;;;10.50;99.90;;;;;;5027699;28;20045;-61
2022/11/02 11:07:26;;;;;;;18.77;2.83;;;10.60;99.90;;;;;;5028831;28;20543;-61
2022/11/02 11:09:55;;;;;;;11.23;1.50;;;10.70;99.90;;;;;;5012776;28;20049;-60
2022/11/02 11:12:31;;;;;;;19.67;3.85;;;10.80;99.90;;;;;;5011402;28;20057;-61
2022/11/02 11:15:01;;;;;;;14.43;1.95;;;10.90;99.90;;;;;;5027856;28;20417;-60
2022/11/02 11:17:51;;;;;;;12.05;1.55;;;11.10;99.90;;;;;;5024053;28;20041;-60
2022/11/02 11:20:41;;;;;;;10.90;1.52;;;11.20;99.90;;;;;;5010840;28;20038;-62
2022/11/02 11:23:17;;;;;;;13.48;1.63;;;11.30;99.90;;;;;;5009799;28;20046;-62
2022/11/02 11:26:03;;;;;;;9.85;1.65;;;11.40;99.90;;;;;;5010392;28;20497;-61
2022/11/02 11:28:50;;;;;;;16.98;1.73;;;11.60;99.90;;;;;;5021466;28;20405;-61
2022/11/02 11:31:18;;;;;;;11.43;2.10;;;11.60;99.90;;;;;;5024098;28;20049;-61
2022/11/02 11:33:53;;;;;;;21.20;2.42;;;11.80;99.90;;;;;;5024410;28;20049;-62
2022/11/02 11:36:41;;;;;;;15.75;1.60;;;11.90;99.90;;;;;;5018233;28;20130;-64
2022/11/02 11:39:28;;;;;;;10.52;1.08;;;12.00;99.90;;;;;;5021774;28;20033;-63
2022/11/02 11:41:56;;;;;;;16.40;1.05;;;12.00;99.90;;;;;;5029084;28;20060;-63
2022/11/02 11:44:25;;;;;;;14.73;3.90;;;11.90;99.90;;;;;;5027345;28;20409;-64
2022/11/02 11:46:56;;;;;;;13.65;1.98;;;11.80;99.90;;;;;;5015124;28;20069;-64
2022/11/02 11:49:33;;;;;;;16.08;2.05;;;11.80;99.90;;;;;;5028949;28;20041;-64
2022/11/02 11:52:26;;;;;;;12.32;1.67;;;11.80;99.90;;;;;;5025351;28;20053;-63
2022/11/02 11:55:01;;;;;;;12.10;1.75;;;11.90;99.90;;;;;;5022288;28;20049;-68
2022/11/02 11:57:32;;;;;;;13.90;1.88;;;11.90;99.90;;;;;;5024605;28;20049;-67
2022/11/02 12:00:03;;;;;;;9.80;1.60;;;11.90;99.90;;;;;;5026880;28;20038;-62
2022/11/02 12:02:34;;;;;;;13.07;1.80;;;11.90;99.90;;;;;;5029008;28;20049;-64
2022/11/02 12:05:17;;;;;;;16.95;1.75;;;12.00;99.90;;;;;;5029779;28;20053;-64
2022/11/02 12:08:09;;;;;;;9.57;1.55;;;12.00;99.90;;;;;;5021642;28;20493;-68
2022/11/02 12:10:52;;;;;;;15.27;2.38;;;12.00;99.90;;;;;;5025776;28;20049;-62
2022/11/02 12:13:53;;;;;;;22.88;2.53;;;12.00;99.90;;;;;;5029431;28;20061;-62
2022/11/02 12:16:32;;;;;;;23.77;3.13;;;12.10;99.90;;;;;;5021523;28;20049;-62
2022/11/02 12:19:22;;;;;;;13.77;1.85;;;12.10;99.90;;;;;;5019318;28;20045;-62
2022/11/02 12:22:04;;;;;;;8.55;1.98;;;12.30;99.90;;;;;;5025361;28;20048;-62
2022/11/02 12:24:57;;;;;;;12.15;1.60;;;12.30;99.90;;;;;;5029818;28;20045;-62
2022/11/02 12:27:48;;;;;;;15.82;2.22;;;12.40;99.90;;;;;;5027557;28;20053;-64
2022/11/02 12:30:34;;;;;;;10.40;1.70;;;12.40;99.90;;;;;;5029228;28;20057;-63
2022/11/02 12:33:02;;;;;;;15.75;2.35;;;12.40;99.90;;;;;;5027868;28;20546;-60
2022/11/02 12:35:39;;;;;;;18.20;1.75;;;12.50;99.90;;;;;;5027092;28;20041;-62
2022/11/02 12:38:27;;;;;;;15.05;2.22;;;12.40;99.90;;;;;;5016815;28;20050;-62
2022/11/02 12:41:02;;;;;;;8.75;1.42;;;12.40;99.90;;;;;;5009420;28;20038;-63
2022/11/02 12:43:39;;;;;;;14.85;1.98;;;12.50;99.90;;;;;;5014102;28;20076;-61
2022/11/02 12:46:32;;;;;;;13.30;2.88;;;12.50;99.90;;;;;;5026878;28;20064;-61
2022/11/02 12:49:33;;;;;;;11.35;1.58;;;12.50;99.90;;;;;;5020481;28;20049;-61
2022/11/02 12:52:18;;;;;;;11.48;1.40;;;12.50;99.90;;;;;;5015104;28;20061;-61
2022/11/02 12:54:57;;;;;;;10.75;2.03;;;12.60;99.90;;;;;;5009363;28;20056;-61
2022/11/02 12:57:29;;;;;;;22.95;3.28;;;12.60;99.90;;;;;;5015921;28;20052;-62
2022/11/02 13:00:01;;;;;;;13.55;1.88;;;12.70;99.90;;;;;;5022831;28;20057;-61
2022/11/02 13:02:43;;;;;;;15.00;1.85;;;12.70;99.90;;;;;;5011535;28;20038;-62
2022/11/02 13:05:22;;;;;;;10.20;1.65;;;12.80;99.90;;;;;;5022594;28;20485;-62
2022/11/02 13:08:08;;;;;;;9.73;1.73;;;12.90;99.90;;;;;;5016995;28;20052;-62
2022/11/02 13:10:46;;;;;;;11.60;1.38;;;13.00;99.90;;;;;;5018228;28;20052;-62
2022/11/02 13:13:35;;;;;;;8.60;1.33;;;13.00;99.90;;;;;;5020094;28;20057;-67
2022/11/02 13:16:06;;;;;;;9.02;1.10;;;13.00;99.90;;;;;;5012905;28;20052;-62
2022/11/02 13:18:56;;;;;;;14.85;2.10;;;13.00;99.90;;;;;;5014018;28;20049;-61
2022/11/02 13:21:32;;;;;;;10.90;1.42;;;13.00;99.90;;;;;;5008653;28;20049;-62
2022/11/02 13:24:04;;;;;;;;;;;13.00;99.90;;;;;;5026799;28;20046;-61
2022/11/02 13:26:40;;;;;;;11.80;2.22;;;13.00;99.90;;;;;;5027658;28;19928;-62
2022/11/02 13:29:43;;;;;;;12.27;2.22;;;13.00;99.90;;;;;;5028089;28;20045;-62
2022/11/02 13:32:20;;;;;;;15.32;1.83;;;13.10;99.90;;;;;;5008649;28;20517;-61
2022/11/02 13:34:51;;;;;;;10.52;1.25;;;13.20;99.90;;;;;;5008733;28;20061;-62
2022/11/02 13:37:21;;;;;;;12.43;1.73;;;13.30;99.90;;;;;;5022808;28;20053;-62
2022/11/02 13:39:59;;;;;;;16.83;2.30;;;13.30;99.90;;;;;;5028369;28;20060;-62
2022/11/02 13:42:29;;;;;;;13.73;2.22;;;13.40;99.90;;;;;;5017601;28;20041;-62
2022/11/02 13:45:28;;;;;;;14.90;1.58;;;13.40;99.90;;;;;;5024790;28;20041;-62